createdAt,value
2017-11-17T00:14:29.911Z,6.20
2017-11-17T00:16:56.024Z,5.70
2017-11-17T00:19:22.963Z,5.80
2017-11-17T00:21:49.173Z,5.80
2017-11-17T00:24:15.423Z,5.90
2017-11-17T00:26:41.532Z,5.90
2017-11-17T00:29:07.719Z,5.90
2017-11-17T00:31:33.805Z,5.80
2017-11-17T00:33:59.953Z,5.90
2017-11-17T00:36:27.535Z,5.90
2017-11-17T00:38:53.680Z,5.90
2017-11-17T00:41:19.767Z,6.00
2017-11-17T00:43:45.880Z,6.00
2017-11-17T00:46:12.075Z,6.00
2017-11-17T00:48:38.292Z,6.10
2017-11-17T00:51:04.471Z,6.20
2017-11-17T00:53:30.667Z,6.10
2017-11-17T00:55:56.763Z,6.20
2017-11-17T00:58:23.078Z,6.20
2017-11-17T01:00:49.211Z,6.20
2017-11-17T01:03:15.305Z,6.20
2017-11-17T01:05:41.437Z,6.10
2017-11-17T01:08:07.549Z,6.20
2017-11-17T01:10:33.715Z,6.20
2017-11-17T01:13:01.033Z,6.20
2017-11-17T01:15:27.960Z,6.30
2017-11-17T01:17:54.108Z,6.30
2017-11-17T01:20:20.276Z,6.30
2017-11-17T01:22:46.438Z,6.40
2017-11-17T01:25:12.643Z,6.40
2017-11-17T01:27:39.853Z,6.30
2017-11-17T01:30:05.992Z,6.40
2017-11-17T01:32:32.094Z,6.30
2017-11-17T01:34:58.250Z,6.40
2017-11-17T01:37:26.874Z,6.30
2017-11-17T01:39:53.787Z,6.30
2017-11-17T01:42:19.956Z,6.20
2017-11-17T01:44:46.870Z,6.20
2017-11-17T01:47:12.978Z,6.20
2017-11-17T01:49:39.850Z,6.20
2017-11-17T01:52:06.021Z,6.20
2017-11-17T01:54:32.195Z,6.20
2017-11-17T01:56:58.491Z,6.20
2017-11-17T01:59:24.651Z,6.10
2017-11-17T02:01:50.755Z,6.10
2017-11-17T02:04:17.757Z,6.20
2017-11-17T02:06:43.898Z,6.20
2017-11-17T02:09:10.573Z,6.20
2017-11-17T02:11:37.571Z,6.10
2017-11-17T02:14:03.695Z,6.10
2017-11-17T02:16:30.503Z,6.30
2017-11-17T02:18:56.643Z,6.20
2017-11-17T02:21:22.794Z,6.20
2017-11-17T02:23:49.691Z,6.20
2017-11-17T02:26:16.015Z,6.20
2017-11-17T02:28:42.131Z,6.20
2017-11-17T02:31:08.974Z,6.20
2017-11-17T02:33:35.158Z,6.20
2017-11-17T02:36:02.125Z,6.20
2017-11-17T02:38:28.300Z,6.20
2017-11-17T02:40:54.477Z,6.30
2017-11-17T02:43:20.661Z,6.30
2017-11-17T02:45:46.805Z,6.30
2017-11-17T02:48:12.955Z,6.40
2017-11-17T02:50:39.331Z,6.30
2017-11-17T02:53:06.182Z,6.40
2017-11-17T02:55:32.367Z,6.30
2017-11-17T02:57:58.496Z,6.40
2017-11-17T03:00:24.695Z,6.40
2017-11-17T03:02:51.571Z,6.40
2017-11-17T03:05:17.739Z,6.40
2017-11-17T03:07:43.857Z,6.40
2017-11-17T03:10:10.051Z,6.40
2017-11-17T03:12:37.034Z,6.50
2017-11-17T03:15:03.126Z,6.40
2017-11-17T03:17:29.329Z,6.50
2017-11-17T03:19:55.452Z,6.50
2017-11-17T03:22:21.637Z,6.60
2017-11-17T03:24:47.768Z,6.50
2017-11-17T03:27:13.854Z,6.60
2017-11-17T03:29:40.687Z,6.70
2017-11-17T03:32:06.815Z,6.70
2017-11-17T03:34:32.926Z,6.60
2017-11-17T03:36:59.019Z,6.60
2017-11-17T03:39:25.914Z,6.60
2017-11-17T03:41:52.011Z,6.50
2017-11-17T03:44:18.127Z,6.70
2017-11-17T03:46:44.354Z,6.70
2017-11-17T03:49:10.485Z,6.70
2017-11-17T03:51:36.619Z,6.70
2017-11-17T03:54:02.750Z,6.70
2017-11-17T03:56:28.841Z,6.80
2017-11-17T03:58:55.692Z,6.80
2017-11-17T04:01:22.590Z,6.80
2017-11-17T04:03:48.745Z,6.80
2017-11-17T04:06:14.851Z,6.90
2017-11-17T04:08:41.010Z,7.00
2017-11-17T04:11:07.134Z,7.00
2017-11-17T04:13:33.238Z,7.00
2017-11-17T04:15:59.371Z,7.00
2017-11-17T04:18:25.551Z,7.00
2017-11-17T04:20:51.650Z,7.00
2017-11-17T04:23:17.798Z,7.10
2017-11-17T04:25:44.705Z,7.10
2017-11-17T04:28:10.821Z,7.10
2017-11-17T04:30:37.007Z,7.10
2017-11-17T04:33:03.136Z,7.10
2017-11-17T04:35:29.262Z,7.10
2017-11-17T04:37:55.420Z,7.20
2017-11-17T04:40:21.526Z,7.20
2017-11-17T04:42:47.677Z,7.20
2017-11-17T04:45:13.807Z,7.20
2017-11-17T04:47:39.921Z,7.20
2017-11-17T04:50:07.636Z,7.30
2017-11-17T04:52:33.809Z,7.30
2017-11-17T04:55:00.118Z,7.30
2017-11-17T04:57:26.342Z,7.30
2017-11-17T04:59:52.434Z,7.30
2017-11-17T05:02:19.335Z,7.40
2017-11-17T05:04:45.464Z,7.40
2017-11-17T05:07:11.586Z,7.40
2017-11-17T05:09:37.701Z,7.40
2017-11-17T05:12:04.554Z,7.50
2017-11-17T05:14:31.486Z,7.50
2017-11-17T05:16:57.632Z,7.50
2017-11-17T05:19:23.835Z,7.50
2017-11-17T05:21:49.963Z,7.50
2017-11-17T05:24:16.078Z,7.50
2017-11-17T05:26:42.302Z,7.50
2017-11-17T05:29:08.445Z,7.50
2017-11-17T05:31:35.376Z,7.40
2017-11-17T05:34:01.482Z,7.40
2017-11-17T05:36:27.600Z,7.40
2017-11-17T05:38:53.770Z,7.40
2017-11-17T05:41:19.874Z,7.40
2017-11-17T05:43:45.986Z,7.50
2017-11-17T05:46:12.098Z,7.40
2017-11-17T05:48:38.277Z,7.50
2017-11-17T05:51:05.178Z,7.50
2017-11-17T05:53:31.293Z,7.50
2017-11-17T05:55:57.436Z,7.50
2017-11-17T05:58:23.589Z,7.50
2017-11-17T06:00:49.705Z,7.40
2017-11-17T06:03:15.829Z,7.50
2017-11-17T06:05:42.678Z,7.40
2017-11-17T06:08:09.521Z,7.40
2017-11-17T06:10:35.639Z,7.40
2017-11-17T06:13:01.740Z,7.40
2017-11-17T06:15:27.847Z,7.30
2017-11-17T06:17:54.064Z,7.40
2017-11-17T06:20:20.176Z,7.40
2017-11-17T06:22:46.318Z,7.40
2017-11-17T06:25:12.484Z,7.40
2017-11-17T06:27:38.689Z,7.40
2017-11-17T06:30:04.786Z,7.40
2017-11-17T06:32:30.963Z,7.40
2017-11-17T06:34:57.081Z,7.50
2017-11-17T06:37:23.871Z,7.40
2017-11-17T06:39:49.988Z,7.30
2017-11-17T06:42:16.108Z,7.30
2017-11-17T06:44:42.199Z,7.30
2017-11-17T06:47:08.356Z,7.30
2017-11-17T06:49:35.257Z,7.20
2017-11-17T06:52:01.470Z,7.20
2017-11-17T06:54:27.607Z,7.10
2017-11-17T06:56:53.741Z,7.10
2017-11-17T06:59:21.429Z,7.10
2017-11-17T07:01:47.551Z,7.00
2017-11-17T07:04:13.687Z,7.00
2017-11-17T07:06:40.545Z,7.00
2017-11-17T07:09:06.681Z,7.00
2017-11-17T07:11:33.531Z,6.90
2017-11-17T07:14:00.354Z,6.90
2017-11-17T07:16:26.472Z,6.90
2017-11-17T07:18:52.584Z,6.80
2017-11-17T07:21:18.803Z,6.80
2017-11-17T07:23:45.643Z,6.80
2017-11-17T07:26:11.857Z,6.80
2017-11-17T07:28:37.974Z,6.90
2017-11-17T07:31:04.066Z,6.90
2017-11-17T07:33:30.671Z,6.90
2017-11-17T07:35:56.752Z,6.90
2017-11-17T07:38:23.629Z,6.80
2017-11-17T07:40:49.702Z,6.80
2017-11-17T07:43:15.822Z,6.80
2017-11-17T07:45:42.179Z,6.90
2017-11-17T07:48:08.337Z,6.80
2017-11-17T07:50:34.501Z,6.80
2017-11-17T07:53:00.591Z,6.80
2017-11-17T07:55:28.195Z,6.80
2017-11-17T07:57:54.323Z,6.80
2017-11-17T08:00:20.416Z,6.80
2017-11-17T08:02:46.537Z,6.80
2017-11-17T08:05:13.783Z,6.80
2017-11-17T08:07:39.963Z,6.80
2017-11-17T08:10:06.051Z,6.80
2017-11-17T08:12:32.188Z,6.80
2017-11-17T08:14:58.338Z,6.80
2017-11-17T08:17:24.571Z,6.90
2017-11-17T08:19:50.681Z,6.80
2017-11-17T08:22:16.842Z,6.80
2017-11-17T08:24:43.038Z,6.90
2017-11-17T08:27:09.182Z,6.90
2017-11-17T08:29:35.337Z,6.90
2017-11-17T08:32:01.532Z,7.00
2017-11-17T08:34:28.379Z,7.10
2017-11-17T08:36:54.541Z,7.00
2017-11-17T08:39:20.678Z,7.10
2017-11-17T08:41:46.786Z,7.10
2017-11-17T08:44:12.909Z,7.10
2017-11-17T08:46:47.337Z,7.10
2017-11-17T08:49:13.447Z,7.10
2017-11-17T08:51:40.310Z,7.20
2017-11-17T08:54:06.434Z,7.20
2017-11-17T08:56:33.316Z,7.30
2017-11-17T08:58:59.436Z,7.20
2017-11-17T09:01:26.317Z,7.30
2017-11-17T09:03:52.408Z,7.30
2017-11-17T09:06:18.542Z,7.30
2017-11-17T09:08:44.642Z,7.30
2017-11-17T09:11:10.835Z,7.30
2017-11-17T09:13:37.697Z,7.40
2017-11-17T09:16:04.531Z,7.40
2017-11-17T09:18:30.640Z,7.40
2017-11-17T09:20:56.755Z,7.50
2017-11-17T09:23:22.888Z,7.60
2017-11-17T09:25:48.997Z,7.60
2017-11-17T09:28:15.168Z,7.50
2017-11-17T09:30:41.303Z,7.60
2017-11-17T09:33:07.434Z,7.50
2017-11-17T09:35:33.530Z,7.50
2017-11-17T09:37:59.681Z,7.60
2017-11-17T09:40:26.530Z,7.80
2017-11-17T09:42:52.698Z,7.80
2017-11-17T09:45:18.855Z,8.30
2017-11-17T09:47:45.143Z,8.70
2017-11-17T09:50:11.266Z,9.00
2017-11-17T09:52:37.375Z,8.80
2017-11-17T09:55:03.544Z,8.70
2017-11-17T09:57:29.652Z,8.60
2017-11-17T09:59:55.775Z,8.50
2017-11-17T10:02:21.922Z,8.50
2017-11-17T10:04:48.013Z,8.60
2017-11-17T10:07:14.168Z,8.70
2017-11-17T10:09:41.064Z,9.00
2017-11-17T10:12:07.225Z,9.00
2017-11-17T10:14:33.337Z,9.20
2017-11-17T10:16:59.467Z,9.30
2017-11-17T10:19:25.568Z,9.30
2017-11-17T10:21:52.419Z,9.50
2017-11-17T10:24:19.351Z,9.50
2017-11-17T10:26:45.487Z,9.50
2017-11-17T10:29:11.617Z,9.50
2017-11-17T10:31:37.729Z,9.60
2017-11-17T10:34:03.862Z,9.10
2017-11-17T10:36:30.573Z,9.30
2017-11-17T10:38:56.706Z,9.50
2017-11-17T10:41:22.801Z,9.40
2017-11-17T10:43:48.931Z,9.40
2017-11-17T10:46:15.058Z,9.20
2017-11-17T10:48:41.166Z,9.60
2017-11-17T10:51:07.279Z,10.00
2017-11-17T10:53:33.434Z,10.60
2017-11-17T10:55:59.552Z,10.60
2017-11-17T10:58:25.673Z,10.90
2017-11-17T11:00:51.822Z,11.20
2017-11-17T11:03:17.925Z,11.60
2017-11-17T11:05:44.787Z,12.30
2017-11-17T11:08:10.928Z,12.30
2017-11-17T11:10:37.919Z,11.30
2017-11-17T11:13:04.106Z,11.50
2017-11-17T11:15:30.927Z,12.60
2017-11-17T11:17:57.051Z,12.50
2017-11-17T11:20:23.171Z,13.40
2017-11-17T11:22:49.336Z,13.50
2017-11-17T11:25:15.468Z,13.60
2017-11-17T11:27:41.572Z,13.70
2017-11-17T11:30:07.702Z,13.50
2017-11-17T11:32:33.826Z,13.00
2017-11-17T11:35:00.649Z,12.20
2017-11-17T11:37:26.826Z,12.20
2017-11-17T11:39:52.943Z,12.20
2017-11-17T11:42:19.082Z,12.10
2017-11-17T11:44:46.120Z,11.50
2017-11-17T11:47:12.234Z,11.50
2017-11-17T11:49:38.358Z,11.40
2017-11-17T11:52:04.464Z,11.60
2017-11-17T11:54:31.300Z,12.00
2017-11-17T11:56:57.416Z,12.00
2017-11-17T11:59:23.559Z,12.50
2017-11-17T12:01:49.673Z,12.90
2017-11-17T12:04:15.789Z,12.60
2017-11-17T12:06:41.947Z,13.20
2017-11-17T12:09:08.075Z,12.30
2017-11-17T12:11:34.222Z,11.30
2017-11-17T12:14:00.333Z,11.10
2017-11-17T12:16:26.466Z,11.50
2017-11-17T12:18:52.570Z,11.30
2017-11-17T12:21:18.703Z,11.50
2017-11-17T12:23:44.813Z,11.80
2017-11-17T12:26:11.488Z,11.70
2017-11-17T12:28:38.208Z,12.00
2017-11-17T12:31:04.877Z,12.80
2017-11-17T12:33:31.033Z,12.40
2017-11-17T12:35:57.163Z,12.50
2017-11-17T12:38:23.289Z,12.10
2017-11-17T12:40:49.421Z,12.20
2017-11-17T12:43:15.555Z,12.30
2017-11-17T12:45:41.713Z,12.50
2017-11-17T12:48:07.870Z,12.40
2017-11-17T12:50:34.081Z,12.80
2017-11-17T12:53:00.173Z,12.20
2017-11-17T12:55:27.087Z,11.80
2017-11-17T12:57:53.210Z,11.80
2017-11-17T13:00:19.314Z,11.60
2017-11-17T13:02:46.155Z,10.50
2017-11-17T13:05:13.049Z,10.30
2017-11-17T13:07:39.159Z,10.30
2017-11-17T13:10:06.026Z,9.80
2017-11-17T13:12:32.155Z,9.80
2017-11-17T13:14:59.015Z,9.60
2017-11-17T13:17:25.135Z,9.60
2017-11-17T13:19:51.290Z,9.50
2017-11-17T13:22:18.143Z,9.60
2017-11-17T13:24:45.016Z,9.60
2017-11-17T13:27:11.243Z,9.60
2017-11-17T13:29:38.076Z,9.60
2017-11-17T13:32:04.182Z,9.60
2017-11-17T13:34:30.345Z,9.50
2017-11-17T13:36:56.429Z,9.40
2017-11-17T13:39:23.410Z,9.50
2017-11-17T13:41:49.544Z,9.60
2017-11-17T13:44:15.658Z,9.50
2017-11-17T13:46:41.758Z,9.40
2017-11-17T13:49:08.063Z,9.30
2017-11-17T13:51:34.167Z,9.40
2017-11-17T13:54:00.259Z,9.30
2017-11-17T13:56:26.595Z,9.50
2017-11-17T13:58:52.719Z,9.50
2017-11-17T14:01:18.855Z,9.50
2017-11-17T14:03:45.111Z,9.50
2017-11-17T14:06:11.238Z,9.50
2017-11-17T14:08:37.356Z,9.40
2017-11-17T14:11:03.445Z,9.50
2017-11-17T14:13:29.561Z,9.50
2017-11-17T14:15:55.637Z,9.50
2017-11-17T14:18:22.490Z,9.40
2017-11-17T14:20:49.350Z,9.30
2017-11-17T14:23:16.190Z,9.20
2017-11-17T14:25:43.086Z,9.10
2017-11-17T14:28:09.197Z,9.10
2017-11-17T14:30:36.030Z,8.90
2017-11-17T14:33:02.140Z,8.80
2017-11-17T14:35:28.252Z,8.80
2017-11-17T14:37:54.390Z,8.70
2017-11-17T14:40:20.520Z,8.60
2017-11-17T14:42:46.631Z,8.60
2017-11-17T14:45:12.727Z,8.50
2017-11-17T14:47:38.898Z,8.40
2017-11-17T14:50:05.032Z,8.30
2017-11-17T14:52:31.868Z,8.20
2017-11-17T14:54:57.982Z,8.20
2017-11-17T14:57:24.115Z,8.10
2017-11-17T14:59:51.110Z,8.00
2017-11-17T15:02:17.242Z,7.90
2017-11-17T15:04:43.660Z,7.90
2017-11-17T15:07:09.809Z,7.80
2017-11-17T15:09:35.944Z,7.80
2017-11-17T15:12:02.125Z,7.70
2017-11-17T15:14:28.236Z,7.60
2017-11-17T15:16:54.512Z,7.60
2017-11-17T15:19:21.349Z,7.50
2017-11-17T15:21:47.510Z,7.50
2017-11-17T15:24:13.686Z,7.60
2017-11-17T15:26:39.836Z,7.50
2017-11-17T15:29:05.974Z,7.40
2017-11-17T15:31:32.183Z,7.30
2017-11-17T15:33:58.325Z,7.30
2017-11-17T15:36:25.753Z,7.30
2017-11-17T15:38:51.897Z,7.20
2017-11-17T15:41:18.019Z,7.20
2017-11-17T15:43:44.110Z,7.20
2017-11-17T15:46:10.334Z,7.20
2017-11-17T15:48:36.510Z,7.10
2017-11-17T15:51:02.666Z,7.10
2017-11-17T15:53:29.085Z,7.00
2017-11-17T15:55:55.272Z,7.00
2017-11-17T15:58:21.361Z,6.90
2017-11-17T16:00:47.469Z,6.90
2017-11-17T16:03:14.085Z,6.90
2017-11-17T16:05:41.608Z,6.80
2017-11-17T16:08:07.771Z,6.80
2017-11-17T16:10:33.869Z,6.80
2017-11-17T16:12:59.996Z,6.80
2017-11-17T16:15:27.443Z,6.70
2017-11-17T16:17:53.561Z,6.70
2017-11-17T16:20:19.688Z,6.70
2017-11-17T16:22:45.915Z,6.70
2017-11-17T16:25:12.409Z,6.60
2017-11-17T16:27:39.433Z,6.50
2017-11-17T16:30:05.701Z,6.40
2017-11-17T16:32:31.821Z,6.40
2017-11-17T16:34:57.934Z,6.30
2017-11-17T16:37:24.177Z,6.40
2017-11-17T16:39:50.306Z,6.40
2017-11-17T16:42:16.557Z,6.40
2017-11-17T16:44:42.733Z,6.40
2017-11-17T16:47:09.048Z,6.40
2017-11-17T16:49:35.215Z,6.40
2017-11-17T16:52:01.338Z,6.40
2017-11-17T16:54:27.433Z,6.30
2017-11-17T16:56:53.532Z,6.30
2017-11-17T16:59:19.658Z,6.30
2017-11-17T17:01:45.770Z,6.30
2017-11-17T17:04:11.882Z,6.20
2017-11-17T17:06:38.754Z,6.20
2017-11-17T17:09:04.855Z,6.20
2017-11-17T17:11:31.763Z,6.20
2017-11-17T17:13:57.940Z,6.10
2017-11-17T17:16:24.179Z,6.10
2017-11-17T17:18:50.334Z,6.10
2017-11-17T17:21:16.667Z,6.10
2017-11-17T17:23:42.757Z,6.00
2017-11-17T17:26:08.869Z,6.00
2017-11-17T17:28:35.052Z,6.00
2017-11-17T17:31:01.218Z,6.00
2017-11-17T17:33:27.307Z,5.90
2017-11-17T17:35:53.587Z,5.90
2017-11-17T17:38:20.188Z,5.90
2017-11-17T17:40:46.399Z,5.90
2017-11-17T17:43:12.531Z,5.80
2017-11-17T17:45:38.636Z,5.80
2017-11-17T17:48:04.723Z,5.80
2017-11-17T17:50:30.860Z,5.80
2017-11-17T17:52:56.995Z,5.80
2017-11-17T17:55:23.105Z,5.80
2017-11-17T17:57:49.269Z,5.80
2017-11-17T18:00:17.917Z,5.70
2017-11-17T18:02:44.026Z,5.70
2017-11-17T18:05:10.192Z,5.70
2017-11-17T18:07:36.289Z,5.70
2017-11-17T18:10:03.138Z,5.70
2017-11-17T18:12:30.295Z,5.60
2017-11-17T18:14:56.476Z,5.60
2017-11-17T18:17:23.088Z,5.60
2017-11-17T18:19:49.967Z,5.50
2017-11-17T18:22:16.098Z,5.50
2017-11-17T18:24:42.395Z,5.50
2017-11-17T18:27:08.564Z,5.40
2017-11-17T18:29:35.432Z,5.40
2017-11-17T18:32:01.565Z,5.30
2017-11-17T18:34:27.881Z,5.30
2017-11-17T18:36:53.963Z,5.30
2017-11-17T18:39:20.124Z,5.20
2017-11-17T18:41:46.283Z,5.20
2017-11-17T18:44:12.421Z,5.20
2017-11-17T18:46:38.535Z,5.20
2017-11-17T18:49:04.788Z,5.10
2017-11-17T18:51:31.682Z,5.10
2017-11-17T18:53:57.774Z,5.10
2017-11-17T18:56:24.030Z,5.10
2017-11-17T18:58:50.165Z,5.00
2017-11-17T19:01:16.256Z,4.90
2017-11-17T19:03:42.394Z,5.00
2017-11-17T19:06:08.569Z,5.00
2017-11-17T19:08:34.684Z,4.90
2017-11-17T19:11:00.863Z,4.90
2017-11-17T19:13:28.036Z,4.90
2017-11-17T19:15:54.149Z,4.80
2017-11-17T19:18:20.255Z,4.80
2017-11-17T19:20:46.339Z,4.80
2017-11-17T19:23:12.447Z,4.70
2017-11-17T19:25:38.593Z,4.70
2017-11-17T19:28:04.698Z,4.70
2017-11-17T19:30:30.873Z,4.70
2017-11-17T19:32:57.029Z,4.60
2017-11-17T19:35:23.112Z,4.70
2017-11-17T19:37:49.990Z,4.60
2017-11-17T19:40:16.242Z,4.50
2017-11-17T19:42:42.389Z,4.60
2017-11-17T19:45:08.570Z,4.60
2017-11-17T19:47:35.490Z,4.60
2017-11-17T19:50:01.612Z,4.60
2017-11-17T19:52:27.931Z,4.50
2017-11-17T19:54:54.158Z,4.50
2017-11-17T19:57:21.078Z,4.40
2017-11-17T19:59:47.211Z,4.40
2017-11-17T20:02:13.354Z,4.40
2017-11-17T20:04:39.502Z,4.40
2017-11-17T20:07:05.766Z,4.40
2017-11-17T20:09:33.346Z,4.30
2017-11-17T20:12:00.178Z,4.30
2017-11-17T20:14:26.284Z,4.20
2017-11-17T20:16:52.458Z,4.30
2017-11-17T20:19:18.590Z,4.20
2017-11-17T20:21:44.740Z,4.20
2017-11-17T20:24:10.878Z,4.20
2017-11-17T20:26:37.127Z,4.20
2017-11-17T20:29:03.256Z,4.20
2017-11-17T20:31:30.108Z,4.10
2017-11-17T20:33:56.236Z,4.10
2017-11-17T20:36:22.353Z,4.20
2017-11-17T20:38:48.496Z,4.10
2017-11-17T20:41:14.687Z,4.10
2017-11-17T20:43:40.846Z,4.10
2017-11-17T20:46:07.023Z,4.10
2017-11-17T20:48:33.244Z,4.10
2017-11-17T20:50:59.386Z,4.10
2017-11-17T20:53:25.537Z,4.00
2017-11-17T20:55:52.510Z,4.00
2017-11-17T20:58:18.665Z,4.10
2017-11-17T21:00:45.556Z,4.10
2017-11-17T21:03:11.784Z,4.10
2017-11-17T21:05:37.932Z,4.10
2017-11-17T21:08:04.105Z,4.00
2017-11-17T21:10:30.258Z,3.90
2017-11-17T21:12:56.454Z,3.90
2017-11-17T21:15:22.608Z,3.90
2017-11-17T21:17:48.711Z,3.90
2017-11-17T21:20:15.615Z,3.80
2017-11-17T21:22:41.762Z,3.80
2017-11-17T21:25:07.898Z,3.90
2017-11-17T21:27:34.015Z,3.80
2017-11-17T21:30:00.346Z,3.90
2017-11-17T21:32:26.968Z,3.80
2017-11-17T21:34:53.185Z,3.80
2017-11-17T21:37:19.273Z,3.80
2017-11-17T21:39:45.402Z,3.80
2017-11-17T21:42:11.609Z,3.80
2017-11-17T21:44:37.930Z,3.70
2017-11-17T21:47:04.013Z,3.70
2017-11-17T21:49:30.127Z,3.70
2017-11-17T21:51:56.493Z,3.60
2017-11-17T21:54:23.304Z,3.60
2017-11-17T21:56:49.477Z,3.60
2017-11-17T21:59:15.709Z,3.60
2017-11-17T22:01:42.535Z,3.70
2017-11-17T22:04:08.674Z,3.60
2017-11-17T22:06:34.786Z,3.60
2017-11-17T22:09:00.907Z,3.60
2017-11-17T22:11:26.980Z,3.60
2017-11-17T22:13:53.168Z,3.60
2017-11-17T22:16:19.274Z,3.50
2017-11-17T22:18:45.505Z,3.50
2017-11-17T22:21:11.618Z,3.50
2017-11-17T22:23:38.043Z,3.50
2017-11-17T22:26:04.130Z,3.50
2017-11-17T22:28:30.369Z,3.40
2017-11-17T22:30:57.385Z,3.40
2017-11-17T22:33:23.521Z,3.40
2017-11-17T22:35:49.711Z,3.40
2017-11-17T22:38:15.843Z,3.40
2017-11-17T22:40:42.855Z,3.40
2017-11-17T22:43:09.240Z,3.40
2017-11-17T22:45:35.555Z,3.40
2017-11-17T22:48:02.308Z,3.40
2017-11-17T22:50:28.441Z,3.40
2017-11-17T22:52:54.530Z,3.40
2017-11-17T22:55:20.841Z,3.40
2017-11-17T22:57:47.027Z,3.30
2017-11-17T23:00:13.841Z,3.30
2017-11-17T23:02:39.954Z,3.30
2017-11-17T23:05:06.084Z,3.30
2017-11-17T23:07:33.021Z,3.30
2017-11-17T23:09:59.899Z,3.20
2017-11-17T23:12:26.069Z,3.20
2017-11-17T23:14:52.206Z,3.30
2017-11-17T23:17:18.307Z,3.30
2017-11-17T23:19:44.480Z,3.20
2017-11-17T23:22:10.576Z,3.30
2017-11-17T23:24:36.700Z,3.30
2017-11-17T23:27:03.598Z,3.20
2017-11-17T23:29:29.679Z,3.10
2017-11-17T23:31:55.795Z,3.20
2017-11-17T23:34:21.921Z,3.10
2017-11-17T23:36:48.040Z,3.00
2017-11-17T23:39:15.003Z,3.00
2017-11-17T23:41:41.242Z,2.90
2017-11-17T23:44:07.415Z,2.90
2017-11-17T23:46:33.672Z,2.90
2017-11-17T23:48:59.778Z,2.90
2017-11-17T23:51:25.990Z,2.80
2017-11-17T23:53:52.230Z,2.80
2017-11-17T23:56:18.360Z,2.80
2017-11-17T23:58:44.486Z,2.80
